Time;durP1;ratioP1;P1;durP2;ratioP2;P2;SDS_P1;SDS_P2;PMS_P1;PMS_P2;Temp;Humidity;BMP_temperature;BMP_pressure;BME280_temperature;BME280_humidity;BME280_pressure;Samples;Min_cycle;Max_cycle;Signal;HPM_P1;HPM_P2
2022/07/12 00:00:35;;;;;;;;;;;14.70;99.90;;;;;;5162118;27;20005;-80
2022/07/12 00:03:01;;;;;;;;;;;14.70;99.90;;;;;;5165804;27;19923;-80
2022/07/12 00:05:26;;;;;;;;;;;14.60;99.90;;;;;;5144769;27;19938;-81
2022/07/12 00:07:52;;;;;;;;;;;14.60;99.90;;;;;;5161359;27;19923;-81
2022/07/12 00:10:17;;;;;;;;;;;14.60;99.90;;;;;;5164318;27;19923;-81
2022/07/12 00:12:43;;;;;;;;;;;14.60;99.90;;;;;;5165298;27;19930;-81
2022/07/12 00:15:09;;;;;;;;;;;14.50;99.90;;;;;;5147124;27;19923;-81
2022/07/12 00:17:35;;;;;;;;;;;14.50;99.90;;;;;;5140280;27;19975;-80
2022/07/12 00:20:01;;;;;;;;;;;14.40;99.90;;;;;;5147353;27;19976;-81
2022/07/12 00:22:28;;;;;;;;;;;14.40;99.90;;;;;;5161987;27;20370;-80
2022/07/12 00:24:54;;;;;;;;;;;14.40;99.90;;;;;;5165413;27;19931;-81
2022/07/12 00:27:19;;;;;;;;;;;14.40;99.90;;;;;;5163622;27;19964;-80
2022/07/12 00:29:45;;;;;;;;;;;14.40;99.90;;;;;;5144960;27;19927;-80
2022/07/12 00:32:11;;;;;;;;;;;14.40;99.90;;;;;;5164394;27;19926;-80
2022/07/12 00:34:36;;;;;;;;;;;14.40;99.90;;;;;;5142986;27;19968;-80
2022/07/12 00:37:02;;;;;;;;;;;14.30;99.90;;;;;;5164397;27;19929;-81
2022/07/12 00:39:27;;;;;;;;;;;14.30;99.90;;;;;;5162700;27;20309;-80
2022/07/12 00:41:53;;;;;;;;;;;14.20;99.90;;;;;;5169821;27;20289;-81
2022/07/12 00:44:18;;;;;;;;;;;14.20;99.90;;;;;;5166640;27;19930;-80
2022/07/12 00:46:44;;;;;;;;;;;14.40;99.90;;;;;;5149968;27;19976;-81
2022/07/12 00:49:15;;;;;;;;;;;14.10;99.90;;;;;;5167452;27;20047;-80
2022/07/12 00:51:43;;;;;;;;;;;14.10;99.90;;;;;;5165634;27;19970;-80
2022/07/12 00:54:09;;;;;;;;;;;14.00;99.90;;;;;;5167718;27;20591;-80
2022/07/12 00:56:35;;;;;;;;;;;14.00;99.90;;;;;;5168833;27;19929;-80
2022/07/12 00:59:00;;;;;;;;;;;14.00;99.90;;;;;;5165283;27;20005;-80
2022/07/12 01:01:26;;;;;;;;;;;14.00;99.90;;;;;;5151370;27;19923;-81
2022/07/12 01:03:52;;;;;;;;;;;14.00;99.90;;;;;;5142266;27;19923;-81
2022/07/12 01:06:19;;;;;;;;;;;13.90;99.90;;;;;;5169417;27;19929;-80
2022/07/12 01:08:45;;;;;;;;;;;14.00;99.90;;;;;;5166891;27;20289;-81
2022/07/12 01:11:10;;;;;;;;;;;13.90;99.90;;;;;;5167308;27;19923;-80
2022/07/12 01:13:37;;;;;;;;;;;14.00;99.90;;;;;;5149760;27;19929;-80
2022/07/12 01:16:03;;;;;;;;;;;14.10;99.90;;;;;;5147962;27;19974;-80
2022/07/12 01:18:29;;;;;;;;;;;14.00;99.90;;;;;;5167778;27;20463;-81
2022/07/12 01:20:55;;;;;;;;;;;14.10;99.90;;;;;;5165347;27;20437;-81
2022/07/12 01:23:22;;;;;;;;;;;14.20;99.90;;;;;;5169521;27;19969;-81
2022/07/12 01:25:47;;;;;;;;;;;14.20;99.90;;;;;;5146224;27;20010;-81
2022/07/12 01:28:13;;;;;;;;;;;14.20;99.90;;;;;;5150034;27;20357;-81
2022/07/12 01:30:40;;;;;;;;;;;14.30;99.90;;;;;;5165008;27;19923;-82
2022/07/12 01:33:05;;;;;;;;;;;14.40;99.90;;;;;;5165953;27;20740;-82
2022/07/12 01:35:31;;;;;;;;;;;14.40;99.90;;;;;;5167026;27;19948;-82
2022/07/12 01:37:57;;;;;;;;;;;14.40;99.90;;;;;;5167859;27;19922;-81
2022/07/12 01:40:22;;;;;;;;;;;14.40;99.90;;;;;;5164993;27;19923;-81
2022/07/12 01:42:48;;;;;;;;;;;14.60;99.90;;;;;;5150372;27;19969;-82
2022/07/12 01:45:13;;;;;;;;;;;14.40;99.90;;;;;;5146419;27;19983;-81
2022/07/12 01:47:39;;;;;;;;;;;14.40;99.90;;;;;;5148333;27;19966;-82
2022/07/12 01:50:06;;;;;;;;;;;14.50;99.90;;;;;;5166247;27;19922;-82
2022/07/12 01:52:32;;;;;;;;;;;14.40;99.90;;;;;;5148881;27;19975;-82
2022/07/12 01:54:57;;;;;;;;;;;14.50;99.90;;;;;;5166786;27;19923;-82
2022/07/12 01:57:23;;;;;;;;;;;14.40;99.90;;;;;;5147740;27;20017;-81
2022/07/12 01:59:49;;;;;;;;;;;14.40;99.90;;;;;;5168356;27;19929;-82
2022/07/12 02:02:14;;;;;;;;;;;14.50;99.90;;;;;;5160279;27;19919;-81
2022/07/12 02:04:40;;;;;;;;;;;14.50;99.90;;;;;;5168613;27;19923;-82
2022/07/12 02:07:05;;;;;;;;;;;14.40;99.90;;;;;;5167477;27;20282;-82
2022/07/12 02:09:31;;;;;;;;;;;14.50;99.90;;;;;;5165193;27;20010;-83
2022/07/12 02:11:57;;;;;;;;;;;14.50;99.90;;;;;;5171316;27;19923;-82
2022/07/12 02:14:23;;;;;;;;;;;14.60;99.90;;;;;;5147014;27;19930;-81
2022/07/12 02:16:49;;;;;;;;;;;14.50;99.90;;;;;;5148991;27;20389;-81
2022/07/12 02:19:14;;;;;;;;;;;14.50;99.90;;;;;;5165118;27;20304;-82
2022/07/12 02:21:40;;;;;;;;;;;14.50;99.90;;;;;;5165509;27;19962;-82
2022/07/12 02:24:07;;;;;;;;;;;14.60;99.90;;;;;;5149297;27;19923;-82
2022/07/12 02:26:34;;;;;;;;;;;14.50;99.90;;;;;;5165688;27;19971;-81
2022/07/12 02:29:00;;;;;;;;;;;14.40;99.90;;;;;;5147242;27;20323;-81
2022/07/12 02:31:25;;;;;;;;;;;14.30;99.90;;;;;;5166181;27;19923;-81
2022/07/12 02:33:51;;;;;;;;;;;14.30;99.90;;;;;;5165735;27;19930;-83
2022/07/12 02:36:17;;;;;;;;;;;14.40;99.90;;;;;;5165169;27;19923;-82
2022/07/12 02:38:42;;;;;;;;;;;14.30;99.90;;;;;;5164662;27;20297;-81
2022/07/12 02:41:08;;;;;;;;;;;14.40;99.90;;;;;;5149210;27;20366;-81
2022/07/12 02:43:34;;;;;;;;;;;14.20;99.90;;;;;;5164066;27;19930;-80
2022/07/12 02:46:03;;;;;;;;;;;14.20;99.90;;;;;;5148162;27;19933;-81
2022/07/12 02:48:29;;;;;;;;;;;14.20;99.90;;;;;;5145819;27;20470;-80
2022/07/12 02:50:54;;;;;;;;;;;14.20;99.90;;;;;;5146636;27;19923;-81
2022/07/12 02:53:20;;;;;;;;;;;14.10;99.90;;;;;;5163166;27;19930;-80
2022/07/12 02:55:46;;;;;;;;;;;14.10;99.90;;;;;;5166542;27;19927;-80
2022/07/12 02:58:14;;;;;;;;;;;14.10;99.90;;;;;;5163465;27;20330;-81
2022/07/12 03:00:40;;;;;;;;;;;14.90;99.90;;;;;;5148128;27;19967;-81
2022/07/12 03:03:08;;;;;;;;;;;14.00;99.90;;;;;;5162986;27;20285;-81
2022/07/12 03:05:34;;;;;;;;;;;13.90;99.90;;;;;;5143283;27;19922;-82
2022/07/12 03:08:00;;;;;;;;;;;14.10;99.90;;;;;;5163819;27;20377;-81
2022/07/12 03:10:25;;;;;;;;;;;14.00;99.90;;;;;;5166204;27;19962;-82
2022/07/12 03:12:51;;;;;;;;;;;13.90;99.90;;;;;;5164104;27;19923;-82
2022/07/12 03:15:16;;;;;;;;;;;13.90;99.90;;;;;;5165361;27;19923;-81
2022/07/12 03:17:42;;;;;;;;;;;13.90;99.90;;;;;;5146149;27;20339;-80
2022/07/12 03:20:11;;;;;;;;;;;13.80;99.90;;;;;;5140447;27;19992;-81
2022/07/12 03:22:37;;;;;;;;;;;13.70;99.90;;;;;;5147768;27;20285;-81
2022/07/12 03:25:03;;;;;;;;;;;13.70;99.90;;;;;;5143567;27;19923;-81
2022/07/12 03:27:28;;;;;;;;;;;13.70;99.90;;;;;;5166891;27;19962;-81
2022/07/12 03:29:54;;;;;;;;;;;13.70;99.90;;;;;;5163139;27;20357;-81
2022/07/12 03:32:19;;;;;;;;;;;13.60;99.90;;;;;;5146582;27;19945;-81
2022/07/12 03:34:45;;;;;;;;;;;13.70;99.90;;;;;;5144866;27;20317;-81
2022/07/12 03:37:10;;;;;;;;;;;13.70;99.90;;;;;;5146613;27;20384;-81
2022/07/12 03:39:36;;;;;;;;;;;13.70;99.90;;;;;;5144632;27;19930;-81
2022/07/12 03:42:01;;;;;;;;;;;13.80;99.90;;;;;;5166594;27;19969;-81
2022/07/12 03:44:30;;;;;;;;;;;13.70;99.90;;;;;;5162684;27;20023;-81
2022/07/12 03:46:55;;;;;;;;;;;13.60;99.90;;;;;;5139184;27;19923;-81
2022/07/12 03:49:21;;;;;;;;;;;13.60;99.90;;;;;;5146882;27;19941;-81
2022/07/12 03:51:46;;;;;;;;;;;13.60;99.90;;;;;;5143496;27;19923;-80
2022/07/12 03:54:12;;;;;;;;;;;13.60;99.90;;;;;;5163873;27;20446;-81
2022/07/12 03:59:22;;;;;;;;;;;13.70;99.90;;;;;;5143921;27;20366;-82
2022/07/12 04:01:47;;;;;;;;;;;13.60;99.90;;;;;;5165169;27;19930;-82
2022/07/12 04:04:13;;;;;;;;;;;13.60;99.90;;;;;;5163630;27;19966;-81
2022/07/12 04:06:38;;;;;;;;;;;13.60;99.90;;;;;;5162538;27;19930;-81
2022/07/12 04:09:04;;;;;;;;;;;13.60;99.90;;;;;;5144385;27;19927;-82
2022/07/12 04:11:30;;;;;;;;;;;13.60;99.90;;;;;;5165458;27;20026;-81
2022/07/12 04:13:55;;;;;;;;;;;13.90;99.90;;;;;;5161441;27;20010;-82
2022/07/12 04:16:21;;;;;;;;;;;13.70;99.90;;;;;;5147301;27;19923;-81
2022/07/12 04:18:46;;;;;;;;;;;13.80;99.90;;;;;;5144116;27;19944;-82
2022/07/12 04:21:12;;;;;;;;;;;13.70;99.90;;;;;;5164029;27;19968;-81
2022/07/12 04:23:38;;;;;;;;;;;13.70;99.90;;;;;;5163746;27;19931;-81
2022/07/12 04:26:03;;;;;;;;;;;14.00;99.90;;;;;;5145253;27;19919;-81
2022/07/12 04:28:29;;;;;;;;;;;13.90;99.90;;;;;;5164202;27;19926;-81
2022/07/12 04:30:54;;;;;;;;;;;13.90;99.90;;;;;;5162147;27;19923;-82
2022/07/12 04:33:20;;;;;;;;;;;13.90;99.90;;;;;;5147224;27;19930;-81
2022/07/12 04:35:46;;;;;;;;;;;14.00;99.90;;;;;;5142977;27;19997;-81
2022/07/12 04:38:11;;;;;;;;;;;14.40;99.90;;;;;;5165273;27;19923;-82
2022/07/12 04:40:37;;;;;;;;;;;14.20;99.90;;;;;;5140413;27;19946;-81
2022/07/12 04:43:03;;;;;;;;;;;14.20;99.90;;;;;;5161335;27;19923;-82
2022/07/12 04:45:28;;;;;;;;;;;14.20;99.90;;;;;;5144956;27;19923;-82
2022/07/12 04:47:54;;;;;;;;;;;14.30;99.90;;;;;;5146193;27;19922;-81
2022/07/12 04:50:19;;;;;;;;;;;14.50;99.90;;;;;;5142353;27;19923;-81
2022/07/12 04:52:45;;;;;;;;;;;14.30;99.90;;;;;;5162382;27;20259;-82
2022/07/12 04:55:10;;;;;;;;;;;14.30;99.90;;;;;;5144615;27;19971;-82
2022/07/12 04:57:36;;;;;;;;;;;14.30;99.90;;;;;;5142549;27;19930;-81
2022/07/12 05:00:03;;;;;;;;;;;14.40;99.90;;;;;;5144849;27;19929;-84
2022/07/12 05:02:29;;;;;;;;;;;14.40;99.90;;;;;;5162030;27;19929;-84
2022/07/12 05:04:54;;;;;;;;;;;14.30;99.90;;;;;;5143757;27;19923;-84
2022/07/12 05:07:20;;;;;;;;;;;14.40;99.90;;;;;;5165248;27;19926;-83
2022/07/12 05:09:46;;;;;;;;;;;14.40;99.90;;;;;;5161965;27;19926;-83
2022/07/12 05:12:11;;;;;;;;;;;14.40;99.90;;;;;;5142164;27;20318;-83
2022/07/12 05:14:37;;;;;;;;;;;14.40;99.90;;;;;;5146446;27;20267;-83
2022/07/12 05:17:05;;;;;;;;;;;14.50;99.90;;;;;;5143749;27;20289;-82
2022/07/12 05:19:31;;;;;;;;;;;15.20;99.90;;;;;;5142638;27;19929;-82
2022/07/12 05:21:56;;;;;;;;;;;14.60;99.90;;;;;;5145247;27;20017;-81
2022/07/12 05:24:22;;;;;;;;;;;14.70;99.90;;;;;;5143531;27;19971;-82
2022/07/12 05:26:48;;;;;;;;;;;14.80;99.90;;;;;;5147888;27;19930;-83
2022/07/12 05:29:14;;;;;;;;;;;15.20;99.90;;;;;;5168642;27;19922;-83
2022/07/12 05:31:39;;;;;;;;;;;14.80;99.90;;;;;;5143381;27;19919;-83
2022/07/12 05:34:05;;;;;;;;;;;14.90;99.90;;;;;;5163253;27;19974;-83
2022/07/12 05:36:30;;;;;;;;;;;14.90;99.90;;;;;;5149637;27;20069;-84
2022/07/12 05:38:56;;;;;;;;;;;15.00;99.90;;;;;;5146929;27;19923;-83
2022/07/12 05:41:21;;;;;;;;;;;15.10;99.90;;;;;;5164845;27;19931;-84
2022/07/12 05:43:47;;;;;;;;;;;15.20;99.90;;;;;;5147921;27;20009;-84
2022/07/12 05:46:12;;;;;;;;;;;15.60;99.90;;;;;;5167540;27;19969;-84
2022/07/12 05:48:39;;;;;;;;;;;15.30;99.90;;;;;;5164667;27;19923;-84
2022/07/12 05:53:48;;;;;;;;;;;15.40;99.90;;;;;;5148531;27;20294;-84
2022/07/12 05:56:14;;;;;;;;;;;15.50;99.90;;;;;;5147401;27;19929;-83
2022/07/12 05:58:40;;;;;;;;;;;15.50;99.90;;;;;;5147172;27;20428;-82
2022/07/12 06:01:05;;;;;;;;;;;15.60;99.90;;;;;;5148939;27;19967;-83
2022/07/12 06:03:31;;;;;;;;;;;15.60;99.90;;;;;;5168552;27;19923;-83
2022/07/12 06:05:56;;;;;;;;;;;15.70;99.90;;;;;;5146909;27;19923;-82
2022/07/12 06:08:22;;;;;;;;;;;15.80;99.90;;;;;;5145480;27;20018;-84
2022/07/12 06:10:47;;;;;;;;;;;15.90;99.90;;;;;;5166440;27;20408;-82
2022/07/12 06:13:13;;;;;;;;;;;16.10;99.90;;;;;;5167016;27;19968;-82
2022/07/12 06:15:38;;;;;;;;;;;16.10;99.90;;;;;;5164521;27;19923;-82
2022/07/12 06:18:04;;;;;;;;;;;16.20;99.90;;;;;;5149059;27;19922;-83
2022/07/12 06:20:29;;;;;;;;;;;16.40;99.90;;;;;;5145171;27;20292;-84
2022/07/12 06:22:55;;;;;;;;;;;16.50;99.90;;;;;;5148695;27;19962;-84
2022/07/12 06:25:21;;;;;;;;;;;16.50;99.90;;;;;;5165445;27;20733;-83
2022/07/12 06:27:48;;;;;;;;;;;16.70;99.90;;;;;;5147625;27;19923;-84
2022/07/12 06:30:17;;;;;;;;;;;16.80;99.90;;;;;;5163243;27;19923;-83
2022/07/12 06:32:43;;;;;;;;;;;16.90;99.90;;;;;;5143605;27;20293;-83
2022/07/12 06:35:09;;;;;;;;;;;17.00;99.90;;;;;;5149557;27;20106;-83
2022/07/12 06:37:34;;;;;;;;;;;17.00;99.90;;;;;;5143224;27;19991;-80
2022/07/12 06:40:00;;;;;;;;;;;17.20;99.90;;;;;;5145331;27;19923;-84
2022/07/12 06:42:26;;;;;;;;;;;17.30;99.90;;;;;;5159856;27;20013;-85
2022/07/12 06:44:51;;;;;;;;;;;17.70;99.90;;;;;;5142662;27;20377;-82
2022/07/12 06:47:16;;;;;;;;;;;17.80;99.90;;;;;;5148457;27;19919;-82
2022/07/12 06:49:42;;;;;;;;;;;17.90;99.90;;;;;;5146321;27;19922;-83
2022/07/12 06:52:08;;;;;;;;;;;18.10;99.90;;;;;;5165251;27;19923;-82
2022/07/12 06:54:33;;;;;;;;;;;18.50;99.90;;;;;;5148147;27;19923;-82
2022/07/12 06:56:59;;;;;;;;;;;18.60;99.90;;;;;;5158926;27;19976;-82
2022/07/12 06:59:24;;;;;;;;;;;18.70;99.90;;;;;;5167262;27;19970;-82
2022/07/12 07:01:52;;;;;;;;;;;18.90;99.90;;;;;;5163756;27;20014;-82
2022/07/12 07:04:17;;;;;;;;;;;19.00;99.90;;;;;;5147396;27;19923;-83
2022/07/12 07:06:43;;;;;;;;;;;18.90;99.90;;;;;;5146101;27;20027;-80
2022/07/12 07:09:08;;;;;;;;;;;19.00;99.90;;;;;;5146508;27;20830;-81
2022/07/12 07:11:35;;;;;;;;;;;19.10;99.90;;;;;;5165198;27;19923;-81
2022/07/12 07:14:00;;;;;;;;;;;19.20;99.90;;;;;;5144975;27;19927;-82
2022/07/12 07:16:26;;;;;;;;;;;19.30;99.90;;;;;;5147942;27;19923;-84
2022/07/12 07:18:51;;;;;;;;;;;19.20;99.90;;;;;;5144670;27;19961;-81
2022/07/12 07:21:17;;;;;;;;;;;19.30;99.90;;;;;;5144862;27;19926;-79
2022/07/12 07:23:43;;;;;;;;;;;19.40;99.90;;;;;;5165458;27;20134;-78
2022/07/12 07:26:09;;;;;;;;;;;19.40;99.90;;;;;;5161096;27;20055;-80
2022/07/12 07:30:51;;;;;;;;;;;19.50;99.90;;;;;;5141943;27;20005;-78
2022/07/12 07:31:20;;;;;;;;;;;19.60;99.90;;;;;;5158617;27;19923;-78
2022/07/12 07:33:46;;;;;;;;;;;19.60;99.90;;;;;;5166419;27;19922;-78
2022/07/12 07:36:11;;;;;;;;;;;19.80;99.90;;;;;;5144711;27;19945;-83
2022/07/12 07:38:37;;;;;;;;;;;19.70;99.90;;;;;;5163016;27;19934;-82
2022/07/12 07:41:02;;;;;;;;;;;19.80;99.90;;;;;;5160233;27;19923;-72
2022/07/12 07:43:28;;;;;;;;;;;19.80;99.90;;;;;;5165298;27;19922;-80
2022/07/12 07:45:53;;;;;;;;;;;19.90;99.90;;;;;;5162510;27;19923;-81
2022/07/12 07:48:19;;;;;;;;;;;20.00;99.90;;;;;;5147733;27;20009;-80
2022/07/12 07:50:44;;;;;;;;;;;20.00;99.90;;;;;;5161686;27;19930;-81
2022/07/12 07:53:10;;;;;;;;;;;20.30;99.90;;;;;;5143527;27;19927;-80
2022/07/12 07:55:35;;;;;;;;;;;20.60;99.90;;;;;;5146822;27;20453;-81
2022/07/12 07:58:01;;;;;;;;;;;20.90;99.90;;;;;;5145010;27;19927;-77
2022/07/12 08:00:27;;;;;;;;;;;21.20;99.90;;;;;;5144509;27;19958;-80
2022/07/12 08:02:53;;;;;;;;;;;21.70;99.90;;;;;;5162771;27;19923;-83
2022/07/12 08:05:19;;;;;;;;;;;22.20;99.90;;;;;;5165883;27;19923;-80
2022/07/12 08:07:44;;;;;;;;;;;22.70;99.90;;;;;;5161364;27;19930;-70
2022/07/12 08:10:10;;;;;;;;;;;23.00;99.90;;;;;;5165501;27;19933;-74
2022/07/12 08:12:35;;;;;;;;;;;23.10;99.90;;;;;;5161255;27;19923;-73
2022/07/12 08:15:01;;;;;;;;;;;23.50;99.90;;;;;;5160669;27;19923;-73
2022/07/12 08:17:27;;;;;;;;;;;24.10;99.90;;;;;;5143526;27;19930;-73
2022/07/12 08:19:52;;;;;;;;;;;24.50;99.90;;;;;;5162067;27;19923;-73
2022/07/12 08:22:18;;;;;;;;;;;25.10;99.90;;;;;;5145992;27;19923;-73
2022/07/12 08:24:43;;;;;;;;;;;25.70;99.90;;;;;;5143482;27;19927;-73
2022/07/12 08:27:09;;;;;;;;;;;26.00;99.90;;;;;;5159781;27;20319;-72
2022/07/12 08:29:34;;;;;;;;;;;26.10;99.90;;;;;;5162337;27;19923;-73
2022/07/12 08:32:00;;;;;;;;;;;26.10;99.90;;;;;;5163223;27;19927;-72
2022/07/12 08:34:25;;;;;;;;;;;26.30;99.90;;;;;;5161363;27;20385;-73
2022/07/12 08:36:51;;;;;;;;;;;26.50;99.90;;;;;;5143839;27;19952;-72
2022/07/12 08:39:16;;;;;;;;;;;26.60;99.90;;;;;;5164313;27;19929;-73
2022/07/12 08:41:42;;;;;;;;;;;26.70;99.90;;;;;;5141607;27;20035;-73
2022/07/12 08:44:08;;;;;;;;;;;26.80;99.90;;;;;;5165331;27;19927;-73
2022/07/12 08:46:33;;;;;;;;;;;26.90;99.90;;;;;;5142771;27;19932;-72
2022/07/12 08:49:04;;;;;;;;;;;27.20;99.90;;;;;;5142780;27;20474;-72
2022/07/12 08:51:30;;;;;;;;;;;27.60;99.90;;;;;;5161901;27;19977;-73
2022/07/12 08:54:04;;;;;;;;;;;28.00;99.90;;;;;;5159418;27;20378;-72
2022/07/12 08:56:31;;;;;;;;;;;28.00;99.90;;;;;;5142986;27;19923;-71
2022/07/12 08:59:13;;;;;;;;;;;28.00;98.80;;;;;;5163955;27;19927;-73
2022/07/12 09:01:39;;;;;;;;;;;28.00;99.30;;;;;;5141625;27;19923;-71
2022/07/12 09:04:11;;;;;;;;;;;28.10;98.70;;;;;;5168411;27;19923;-71
2022/07/12 09:06:36;;;;;;;;;;;28.10;98.50;;;;;;5162811;27;19936;-71
2022/07/12 09:09:02;;;;;;;;;;;28.20;98.40;;;;;;5169137;27;20017;-70
2022/07/12 09:11:28;;;;;;;;;;;28.10;99.00;;;;;;5146707;27;19930;-70
2022/07/12 09:13:58;;;;;;;;;;;28.20;99.30;;;;;;5167691;27;20334;-70
2022/07/12 09:16:24;;;;;;;;;;;28.60;98.80;;;;;;5147297;27;19923;-73
2022/07/12 09:18:50;;;;;;;;;;;29.00;97.80;;;;;;5165382;27;19979;-73
2022/07/12 09:21:23;;;;;;;;;;;29.00;97.10;;;;;;5167372;27;19972;-73
2022/07/12 09:23:53;;;;;;;;;;;29.00;97.70;;;;;;5147515;27;20401;-73
2022/07/12 09:26:18;;;;;;;;;;;29.20;98.00;;;;;;5149130;27;19930;-73
2022/07/12 09:28:44;;;;;;;;;;;29.40;96.80;;;;;;5148409;27;19923;-73
2022/07/12 09:31:10;;;;;;;;;;;29.20;97.20;;;;;;5165712;27;19927;-72
2022/07/12 09:36:24;;;;;;;;;;;29.50;96.60;;;;;;5148729;27;19927;-75
2022/07/12 09:38:52;;;;;;;;;;;29.10;97.10;;;;;;5146423;27;19929;-72
2022/07/12 09:41:18;;;;;;;;;;;28.80;96.30;;;;;;5149228;27;19963;-72
2022/07/12 09:43:44;;;;;;;;;;;28.50;97.30;;;;;;5166497;27;19930;-71
2022/07/12 09:46:10;;;;;;;;;;;28.70;96.80;;;;;;5146945;27;19942;-71
2022/07/12 09:48:36;;;;;;;;;;;28.70;97.00;;;;;;5144710;27;19929;-75
2022/07/12 09:51:02;;;;;;;;;;;28.70;97.10;;;;;;5144215;27;19958;-75
2022/07/12 09:53:30;;;;;;;;;;;29.00;96.70;;;;;;5163659;27;19969;-75
2022/07/12 09:55:56;;;;;;;;;;;28.90;96.80;;;;;;5142157;27;19923;-74
2022/07/12 09:58:23;;;;;;;;;;;28.90;97.00;;;;;;5142045;27;20326;-71
2022/07/12 10:00:50;;;;;;;;;;;29.30;96.30;;;;;;5142258;27;19930;-74
2022/07/12 10:03:17;;;;;;;;;;;29.20;96.00;;;;;;5147696;27;20282;-71
2022/07/12 10:05:42;;;;;;;;;;;29.10;95.60;;;;;;5144545;27;20613;-73
2022/07/12 10:08:09;;;;;;;;;;;29.10;96.50;;;;;;5147846;27;19975;-74
2022/07/12 10:10:35;;;;;;;;;;;29.00;95.90;;;;;;5148259;27;19926;-73
2022/07/12 10:13:01;;;;;;;;;;;28.80;96.60;;;;;;5162908;27;19979;-75
2022/07/12 10:15:27;;;;;;;;;;;28.70;96.10;;;;;;5164388;27;19930;-83
2022/07/12 10:17:54;;;;;;;;;;;28.70;96.20;;;;;;5145372;27;19930;-78
2022/07/12 10:20:23;;;;;;;;;;;28.40;97.10;;;;;;5161372;27;19922;-75
2022/07/12 10:22:49;;;;;;;;;;;28.30;97.40;;;;;;5141894;27;20400;-77
2022/07/12 10:25:28;;;;;;;;;;;28.20;97.50;;;;;;5149347;27;20396;-76
2022/07/12 10:27:53;;;;;;;;;;;27.90;97.10;;;;;;5159619;27;20370;-81
2022/07/12 10:30:22;;;;;;;;;;;27.90;97.10;;;;;;5167215;27;20001;-74
2022/07/12 10:32:48;;;;;;;;;;;28.10;97.30;;;;;;5140102;27;19923;-76
2022/07/12 10:35:17;;;;;;;;;;;28.30;96.90;;;;;;5143758;27;19922;-75
2022/07/12 10:38:03;;;;;;;;;;;28.70;96.10;;;;;;5148158;27;20331;-74
2022/07/12 10:40:33;;;;;;;;;;;28.90;96.10;;;;;;5162235;27;19919;-77
2022/07/12 10:43:05;;;;;;;;;;;29.00;96.00;;;;;;5146380;27;19923;-74
2022/07/12 10:45:31;;;;;;;;;;;29.10;96.60;;;;;;5146503;27;20046;-79
2022/07/12 10:47:57;;;;;;;;;;;29.30;96.50;;;;;;5146497;27;19931;-76
2022/07/12 10:50:44;;;;;;;;;;;29.40;96.60;;;;;;5163890;27;19929;-73
2022/07/12 10:53:20;;;;;;;;;;;29.70;95.90;;;;;;5144898;27;20018;-76
2022/07/12 10:56:04;;;;;;;;;;;29.90;96.20;;;;;;5140014;27;19931;-76
2022/07/12 10:58:34;;;;;;;;;;;30.00;96.00;;;;;;5145178;27;19922;-79
2022/07/12 11:01:04;;;;;;;;;;;30.30;95.20;;;;;;5165306;27;19919;-78
2022/07/12 11:03:30;;;;;;;;;;;30.30;95.20;;;;;;5145993;27;20397;-77
2022/07/12 11:06:03;;;;;;;;;;;30.30;95.60;;;;;;5146070;27;19928;-76
2022/07/12 11:08:31;;;;;;;;;;;30.30;95.00;;;;;;5164991;27;20286;-76
2022/07/12 11:10:57;;;;;;;;;;;30.30;95.30;;;;;;5145291;27;19926;-80
2022/07/12 11:13:24;;;;;;;;;;;30.10;95.00;;;;;;5163360;27;19945;-76
2022/07/12 11:15:59;;;;;;;;;;;30.20;96.00;;;;;;5144310;27;20006;-80
2022/07/12 11:18:29;;;;;;;;;;;30.10;95.10;;;;;;5144270;27;19923;-75
2022/07/12 11:20:56;;;;;;;;;;;30.20;94.70;;;;;;5146404;27;19929;-73
2022/07/12 11:23:21;;;;;;;;;;;30.10;94.50;;;;;;5144318;27;19988;-73
2022/07/12 11:25:47;;;;;;;;;;;30.10;94.00;;;;;;5131397;27;20073;-72
2022/07/12 11:28:13;;;;;;;;;;;29.90;93.60;;;;;;5163508;27;19966;-72
2022/07/12 11:30:47;;;;;;;;;;;30.00;93.70;;;;;;5160175;27;20398;-76
2022/07/12 11:33:12;;;;;;;;;;;30.10;92.90;;;;;;5139488;27;19923;-73
2022/07/12 11:35:38;;;;;;;;;;;30.30;93.50;;;;;;5162044;27;20309;-76
2022/07/12 11:38:04;;;;;;;;;;;30.50;92.90;;;;;;5163817;27;19923;-75
2022/07/12 11:40:30;;;;;;;;;;;30.60;92.50;;;;;;5161854;27;20277;-74
2022/07/12 11:42:55;;;;;;;;;;;30.60;91.60;;;;;;5136220;27;19923;-71
2022/07/12 11:45:24;;;;;;;;;;;30.20;91.80;;;;;;5142992;27;19931;-74
2022/07/12 11:47:50;;;;;;;;;;;30.20;92.50;;;;;;5139432;27;19946;-76
2022/07/12 11:50:17;;;;;;;;;;;30.40;92.30;;;;;;5141887;27;20462;-75
2022/07/12 11:52:43;;;;;;;;;;;30.60;91.10;;;;;;5139852;27;20010;-76
2022/07/12 11:55:08;;;;;;;;;;;30.40;91.80;;;;;;5142992;27;20018;-76
2022/07/12 11:57:34;;;;;;;;;;;30.30;92.60;;;;;;5142628;27;19945;-76
2022/07/12 12:00:15;;;;;;;;;;;30.40;91.70;;;;;;5137998;27;19946;-76
2022/07/12 12:02:40;;;;;;;;;;;30.50;90.40;;;;;;5135952;27;19937;-77
2022/07/12 12:05:09;;;;;;;;;;;30.10;90.50;;;;;;5141100;27;19937;-76
2022/07/12 12:07:34;;;;;;;;;;;30.10;90.70;;;;;;5144299;27;20275;-76
2022/07/12 12:10:05;;;;;;;;;;;30.10;91.10;;;;;;5138763;27;19923;-77
2022/07/12 12:12:59;;;;;;;;;;;30.10;91.50;;;;;;5143283;27;20013;-79
2022/07/12 12:15:26;;;;;;;;;;;30.40;91.00;;;;;;5123519;27;19931;-76
2022/07/12 12:17:53;;;;;;;;;;;30.40;91.40;;;;;;5138084;27;19924;-81
2022/07/12 12:20:20;;;;;;;;;;;30.50;91.50;;;;;;5138132;27;20369;-76
2022/07/12 12:22:46;;;;;;;;;;;30.50;91.20;;;;;;5138394;27;20465;-77
2022/07/12 12:25:15;;;;;;;;;;;30.60;91.60;;;;;;5142220;27;19972;-77
2022/07/12 12:28:07;;;;;;;;;;;30.60;91.90;;;;;;5139334;27;19923;-76
2022/07/12 12:30:33;;;;;;;;;;;30.20;92.20;;;;;;5134360;27;19928;-77
2022/07/12 12:33:00;;;;;;;;;;;29.90;93.10;;;;;;5140428;27;20399;-75
2022/07/12 12:35:36;;;;;;;;;;;29.80;93.10;;;;;;5139482;27;19976;-74
2022/07/12 12:38:03;;;;;;;;;;;29.50;93.50;;;;;;5144427;27;19927;-74
2022/07/12 12:40:31;;;;;;;;;;;29.30;94.10;;;;;;5144102;27;19920;-76
2022/07/12 12:43:09;;;;;;;;;;;29.00;94.40;;;;;;5138845;27;19984;-76
2022/07/12 12:45:35;;;;;;;;;;;29.00;94.60;;;;;;5144349;27;19926;-76
2022/07/12 12:48:02;;;;;;;;;;;28.80;94.70;;;;;;5154031;27;19927;-73
2022/07/12 12:50:37;;;;;;;;;;;28.60;95.00;;;;;;5154918;27;19970;-73
2022/07/12 12:53:07;;;;;;;;;;;28.80;95.10;;;;;;5140164;27;19930;-74
2022/07/12 12:55:32;;;;;;;;;;;28.50;94.90;;;;;;5161051;27;20017;-74
2022/07/12 12:57:58;;;;;;;;;;;28.40;95.10;;;;;;5141963;27;20350;-73
2022/07/12 13:00:23;;;;;;;;;;;28.40;95.40;;;;;;5130006;27;19954;-74
2022/07/12 13:02:49;;;;;;;;;;;28.50;95.60;;;;;;5144888;27;19926;-72
2022/07/12 13:05:15;;;;;;;;;;;28.40;95.70;;;;;;5143285;27;19930;-74
2022/07/12 13:07:40;;;;;;;;;;;28.30;95.90;;;;;;5138711;27;19923;-73
2022/07/12 13:10:06;;;;;;;;;;;28.20;95.90;;;;;;5136841;27;20392;-72
2022/07/12 13:12:31;;;;;;;;;;;28.10;96.50;;;;;;5139944;27;19934;-72
2022/07/12 13:14:57;;;;;;;;;;;28.30;95.70;;;;;;5138892;27;19931;-79
2022/07/12 13:17:22;;;;;;;;;;;28.20;95.80;;;;;;5155578;27;20370;-72
2022/07/12 13:19:48;;;;;;;;;;;28.30;96.30;;;;;;5159245;27;20007;-73
2022/07/12 13:22:16;;;;;;;;;;;28.30;96.20;;;;;;5157545;27;19938;-73
2022/07/12 13:24:42;;;;;;;;;;;28.30;95.60;;;;;;5140379;27;19931;-72
2022/07/12 13:27:07;;;;;;;;;;;28.50;95.40;;;;;;5140462;27;19946;-73
2022/07/12 13:29:33;;;;;;;;;;;28.50;95.90;;;;;;5159026;27;19958;-72
2022/07/12 13:31:59;;;;;;;;;;;28.40;95.90;;;;;;5159839;27;19959;-71
2022/07/12 13:34:24;;;;;;;;;;;28.40;95.90;;;;;;5141062;27;19937;-72
2022/07/12 13:36:51;;;;;;;;;;;28.70;96.10;;;;;;5164251;27;20383;-72
2022/07/12 13:42:01;;;;;;;;;;;28.40;95.90;;;;;;5164289;27;19962;-76
2022/07/12 13:44:26;;;;;;;;;;;28.30;95.90;;;;;;5165292;27;20027;-77
2022/07/12 13:46:52;;;;;;;;;;;28.40;96.20;;;;;;5145879;27;20010;-77
2022/07/12 13:49:17;;;;;;;;;;;28.40;95.80;;;;;;5160725;27;20397;-82
2022/07/12 13:51:43;;;;;;;;;;;28.40;95.90;;;;;;5147967;27;19929;-77
2022/07/12 13:54:09;;;;;;;;;;;28.20;96.20;;;;;;5146014;27;20426;-79
2022/07/12 13:56:34;;;;;;;;;;;27.90;96.70;;;;;;5142945;27;19922;-77
2022/07/12 13:59:00;;;;;;;;;;;27.90;96.30;;;;;;5162982;27;19919;-78
2022/07/12 14:01:25;;;;;;;;;;;27.80;96.40;;;;;;5144874;27;19923;-78
2022/07/12 14:03:51;;;;;;;;;;;27.70;96.40;;;;;;5146152;27;19974;-73
2022/07/12 14:06:16;;;;;;;;;;;27.70;96.80;;;;;;5163989;27;19998;-80
2022/07/12 14:08:42;;;;;;;;;;;27.90;97.00;;;;;;5166866;27;20366;-84
2022/07/12 14:11:07;;;;;;;;;;;27.90;96.70;;;;;;5149805;27;20397;-77
2022/07/12 14:13:33;;;;;;;;;;;27.90;96.30;;;;;;5148450;27;20374;-79
2022/07/12 14:15:59;;;;;;;;;;;27.80;96.30;;;;;;5151059;27;19942;-88
2022/07/12 14:18:24;;;;;;;;;;;27.70;96.60;;;;;;5160535;27;20277;-80
2022/07/12 14:20:51;;;;;;;;;;;27.40;96.40;;;;;;5161445;27;19926;-81
2022/07/12 14:23:16;;;;;;;;;;;27.40;96.50;;;;;;5148774;27;19930;-81